sensor_id;sensor_type;location;lat;lon;timestamp;P1;durP1;ratioP1;P2;durP2;ratioP2
4268;SDS011;2148;48.554;7.834;2023-06-22T00:02:04;8.63;;;6.90;;
4268;SDS011;2148;48.554;7.834;2023-06-22T00:04:29;8.43;;;7.63;;
4268;SDS011;2148;48.554;7.834;2023-06-22T00:06:55;9.33;;;7.60;;
4268;SDS011;2148;48.554;7.834;2023-06-22T00:09:20;9.20;;;7.60;;
4268;SDS011;2148;48.554;7.834;2023-06-22T00:11:45;7.80;;;7.10;;
4268;SDS011;2148;48.554;7.834;2023-06-22T00:14:10;7.57;;;6.90;;
4268;SDS011;2148;48.554;7.834;2023-06-22T00:16:36;9.23;;;6.77;;
4268;SDS011;2148;48.554;7.834;2023-06-22T00:19:01;7.97;;;7.27;;
4268;SDS011;2148;48.554;7.834;2023-06-22T00:21:27;8.83;;;7.33;;
4268;SDS011;2148;48.554;7.834;2023-06-22T00:23:52;8.23;;;7.43;;
4268;SDS011;2148;48.554;7.834;2023-06-22T00:26:18;7.73;;;6.90;;
4268;SDS011;2148;48.554;7.834;2023-06-22T00:28:43;8.57;;;7.23;;
4268;SDS011;2148;48.554;7.834;2023-06-22T00:31:09;9.13;;;7.33;;
4268;SDS011;2148;48.554;7.834;2023-06-22T00:33:34;9.00;;;8.00;;
4268;SDS011;2148;48.554;7.834;2023-06-22T00:35:59;9.03;;;8.03;;
4268;SDS011;2148;48.554;7.834;2023-06-22T00:38:24;10.60;;;7.87;;
4268;SDS011;2148;48.554;7.834;2023-06-22T00:40:50;8.30;;;7.47;;
4268;SDS011;2148;48.554;7.834;2023-06-22T00:43:15;8.93;;;7.67;;
4268;SDS011;2148;48.554;7.834;2023-06-22T00:45:40;9.27;;;7.83;;
4268;SDS011;2148;48.554;7.834;2023-06-22T00:48:06;9.50;;;7.00;;
4268;SDS011;2148;48.554;7.834;2023-06-22T00:50:33;9.93;;;7.60;;
4268;SDS011;2148;48.554;7.834;2023-06-22T00:52:59;9.27;;;8.37;;
4268;SDS011;2148;48.554;7.834;2023-06-22T00:55:33;8.90;;;7.47;;
4268;SDS011;2148;48.554;7.834;2023-06-22T00:58:05;10.30;;;7.10;;
4268;SDS011;2148;48.554;7.834;2023-06-22T01:00:35;8.17;;;7.43;;
4268;SDS011;2148;48.554;7.834;2023-06-22T01:03:01;9.83;;;8.23;;
4268;SDS011;2148;48.554;7.834;2023-06-22T01:05:27;8.50;;;7.63;;
4268;SDS011;2148;48.554;7.834;2023-06-22T01:13:39;8.50;;;6.90;;
4268;SDS011;2148;48.554;7.834;2023-06-22T01:16:19;9.17;;;7.67;;
4268;SDS011;2148;48.554;7.834;2023-06-22T01:18:49;8.20;;;7.37;;
4268;SDS011;2148;48.554;7.834;2023-06-22T01:21:16;8.43;;;7.63;;
4268;SDS011;2148;48.554;7.834;2023-06-22T01:29:14;7.80;;;6.97;;
4268;SDS011;2148;48.554;7.834;2023-06-22T01:31:40;8.27;;;7.43;;
4268;SDS011;2148;48.554;7.834;2023-06-22T01:34:06;8.43;;;7.63;;
4268;SDS011;2148;48.554;7.834;2023-06-22T01:36:33;8.60;;;7.70;;
4268;SDS011;2148;48.554;7.834;2023-06-22T01:38:59;9.30;;;7.57;;
4268;SDS011;2148;48.554;7.834;2023-06-22T01:41:26;10.43;;;7.70;;
4268;SDS011;2148;48.554;7.834;2023-06-22T01:43:52;9.53;;;7.93;;
4268;SDS011;2148;48.554;7.834;2023-06-22T01:46:18;8.87;;;7.67;;
4268;SDS011;2148;48.554;7.834;2023-06-22T01:48:46;8.50;;;7.70;;
4268;SDS011;2148;48.554;7.834;2023-06-22T01:51:13;8.53;;;7.57;;
4268;SDS011;2148;48.554;7.834;2023-06-22T01:53:38;8.50;;;7.37;;
4268;SDS011;2148;48.554;7.834;2023-06-22T01:56:04;9.27;;;7.53;;
4268;SDS011;2148;48.554;7.834;2023-06-22T01:58:30;11.70;;;8.00;;
4268;SDS011;2148;48.554;7.834;2023-06-22T02:00:58;8.63;;;7.30;;
4268;SDS011;2148;48.554;7.834;2023-06-22T02:03:34;8.30;;;7.17;;
4268;SDS011;2148;48.554;7.834;2023-06-22T02:06:05;8.07;;;7.27;;
4268;SDS011;2148;48.554;7.834;2023-06-22T02:08:36;9.80;;;7.03;;
4268;SDS011;2148;48.554;7.834;2023-06-22T02:11:05;8.80;;;7.90;;
4268;SDS011;2148;48.554;7.834;2023-06-22T02:13:31;8.53;;;7.57;;
4268;SDS011;2148;48.554;7.834;2023-06-22T02:15:57;9.27;;;7.53;;
4268;SDS011;2148;48.554;7.834;2023-06-22T02:18:22;9.20;;;7.60;;
4268;SDS011;2148;48.554;7.834;2023-06-22T02:20:47;9.70;;;7.50;;
4268;SDS011;2148;48.554;7.834;2023-06-22T02:23:13;11.10;;;8.60;;
4268;SDS011;2148;48.554;7.834;2023-06-22T02:25:38;9.77;;;7.17;;
4268;SDS011;2148;48.554;7.834;2023-06-22T02:28:04;8.70;;;7.20;;
4268;SDS011;2148;48.554;7.834;2023-06-22T02:30:29;7.77;;;7.03;;
4268;SDS011;2148;48.554;7.834;2023-06-22T02:32:55;8.07;;;7.27;;
4268;SDS011;2148;48.554;7.834;2023-06-22T02:35:25;9.93;;;7.90;;
4268;SDS011;2148;48.554;7.834;2023-06-22T02:37:56;8.33;;;7.47;;
4268;SDS011;2148;48.554;7.834;2023-06-22T02:40:23;7.57;;;6.77;;
4268;SDS011;2148;48.554;7.834;2023-06-22T02:42:48;8.37;;;6.87;;
4268;SDS011;2148;48.554;7.834;2023-06-22T02:45:13;8.43;;;7.10;;
4268;SDS011;2148;48.554;7.834;2023-06-22T02:47:38;9.03;;;7.50;;
4268;SDS011;2148;48.554;7.834;2023-06-22T02:50:04;9.37;;;7.80;;
4268;SDS011;2148;48.554;7.834;2023-06-22T02:52:29;7.73;;;6.93;;
4268;SDS011;2148;48.554;7.834;2023-06-22T02:54:55;8.63;;;7.70;;
4268;SDS011;2148;48.554;7.834;2023-06-22T02:57:20;9.73;;;7.23;;
4268;SDS011;2148;48.554;7.834;2023-06-22T02:59:45;9.13;;;7.93;;
4268;SDS011;2148;48.554;7.834;2023-06-22T03:02:10;8.23;;;7.30;;
4268;SDS011;2148;48.554;7.834;2023-06-22T03:04:36;9.87;;;7.40;;
4268;SDS011;2148;48.554;7.834;2023-06-22T03:07:01;8.23;;;7.30;;
4268;SDS011;2148;48.554;7.834;2023-06-22T03:09:27;7.87;;;7.17;;
4268;SDS011;2148;48.554;7.834;2023-06-22T03:11:53;7.97;;;7.17;;
4268;SDS011;2148;48.554;7.834;2023-06-22T03:14:19;7.50;;;6.20;;
4268;SDS011;2148;48.554;7.834;2023-06-22T03:16:44;10.67;;;7.50;;
4268;SDS011;2148;48.554;7.834;2023-06-22T03:19:09;8.60;;;7.47;;
4268;SDS011;2148;48.554;7.834;2023-06-22T03:21:35;8.40;;;7.00;;
4268;SDS011;2148;48.554;7.834;2023-06-22T03:24:03;7.60;;;6.80;;
4268;SDS011;2148;48.554;7.834;2023-06-22T03:26:29;7.63;;;6.90;;
4268;SDS011;2148;48.554;7.834;2023-06-22T03:28:54;9.33;;;7.80;;
4268;SDS011;2148;48.554;7.834;2023-06-22T03:31:20;7.73;;;7.03;;
4268;SDS011;2148;48.554;7.834;2023-06-22T03:33:46;8.60;;;7.60;;
4268;SDS011;2148;48.554;7.834;2023-06-22T03:36:13;8.03;;;7.23;;
4268;SDS011;2148;48.554;7.834;2023-06-22T03:38:38;8.73;;;7.87;;
4268;SDS011;2148;48.554;7.834;2023-06-22T03:41:04;7.53;;;6.70;;
4268;SDS011;2148;48.554;7.834;2023-06-22T03:43:29;8.77;;;7.80;;
4268;SDS011;2148;48.554;7.834;2023-06-22T03:45:54;8.13;;;7.33;;
4268;SDS011;2148;48.554;7.834;2023-06-22T03:48:19;8.90;;;7.57;;
4268;SDS011;2148;48.554;7.834;2023-06-22T03:50:44;10.73;;;8.57;;
4268;SDS011;2148;48.554;7.834;2023-06-22T03:53:10;8.33;;;7.50;;
4268;SDS011;2148;48.554;7.834;2023-06-22T03:55:35;9.10;;;7.50;;
4268;SDS011;2148;48.554;7.834;2023-06-22T03:58:01;8.93;;;7.47;;
4268;SDS011;2148;48.554;7.834;2023-06-22T04:00:30;10.50;;;7.53;;
4268;SDS011;2148;48.554;7.834;2023-06-22T04:02:56;7.97;;;7.17;;
4268;SDS011;2148;48.554;7.834;2023-06-22T04:05:22;9.13;;;7.17;;
4268;SDS011;2148;48.554;7.834;2023-06-22T04:07:47;8.80;;;7.30;;
4268;SDS011;2148;48.554;7.834;2023-06-22T04:10:12;8.30;;;7.43;;
4268;SDS011;2148;48.554;7.834;2023-06-22T04:12:37;8.50;;;7.60;;
4268;SDS011;2148;48.554;7.834;2023-06-22T04:15:03;8.30;;;7.50;;
4268;SDS011;2148;48.554;7.834;2023-06-22T04:17:28;9.17;;;7.30;;
4268;SDS011;2148;48.554;7.834;2023-06-22T04:19:53;8.20;;;7.37;;
4268;SDS011;2148;48.554;7.834;2023-06-22T04:22:19;10.97;;;7.80;;
4268;SDS011;2148;48.554;7.834;2023-06-22T04:24:44;7.77;;;7.03;;
4268;SDS011;2148;48.554;7.834;2023-06-22T04:27:09;8.63;;;7.80;;
4268;SDS011;2148;48.554;7.834;2023-06-22T04:29:35;8.67;;;7.27;;
4268;SDS011;2148;48.554;7.834;2023-06-22T04:32:00;10.23;;;7.03;;
4268;SDS011;2148;48.554;7.834;2023-06-22T04:34:30;7.87;;;7.03;;
4268;SDS011;2148;48.554;7.834;2023-06-22T04:36:55;10.47;;;7.43;;
4268;SDS011;2148;48.554;7.834;2023-06-22T04:39:21;7.83;;;7.03;;
4268;SDS011;2148;48.554;7.834;2023-06-22T04:41:46;8.93;;;8.03;;
4268;SDS011;2148;48.554;7.834;2023-06-22T04:44:12;10.30;;;7.80;;
4268;SDS011;2148;48.554;7.834;2023-06-22T04:46:38;8.43;;;7.50;;
4268;SDS011;2148;48.554;7.834;2023-06-22T04:49:05;8.27;;;7.50;;
4268;SDS011;2148;48.554;7.834;2023-06-22T04:51:43;9.70;;;8.63;;
4268;SDS011;2148;48.554;7.834;2023-06-22T04:54:09;9.17;;;8.10;;
4268;SDS011;2148;48.554;7.834;2023-06-22T04:56:34;8.77;;;7.47;;
4268;SDS011;2148;48.554;7.834;2023-06-22T04:59:00;10.03;;;8.13;;
4268;SDS011;2148;48.554;7.834;2023-06-22T05:01:25;9.37;;;8.33;;
4268;SDS011;2148;48.554;7.834;2023-06-22T05:03:51;9.40;;;8.03;;
4268;SDS011;2148;48.554;7.834;2023-06-22T05:06:23;9.53;;;8.60;;
4268;SDS011;2148;48.554;7.834;2023-06-22T05:08:55;9.20;;;8.30;;
4268;SDS011;2148;48.554;7.834;2023-06-22T05:11:27;8.93;;;7.47;;
4268;SDS011;2148;48.554;7.834;2023-06-22T05:13:53;9.03;;;8.13;;
4268;SDS011;2148;48.554;7.834;2023-06-22T05:16:18;8.63;;;7.77;;
4268;SDS011;2148;48.554;7.834;2023-06-22T05:18:49;8.93;;;7.93;;
4268;SDS011;2148;48.554;7.834;2023-06-22T05:21:15;9.30;;;8.17;;
4268;SDS011;2148;48.554;7.834;2023-06-22T05:23:40;10.47;;;8.73;;
4268;SDS011;2148;48.554;7.834;2023-06-22T05:26:06;10.00;;;8.23;;
4268;SDS011;2148;48.554;7.834;2023-06-22T05:28:34;8.90;;;8.00;;
4268;SDS011;2148;48.554;7.834;2023-06-22T05:30:59;11.20;;;8.60;;
4268;SDS011;2148;48.554;7.834;2023-06-22T05:33:25;9.43;;;8.43;;
4268;SDS011;2148;48.554;7.834;2023-06-22T05:35:50;10.17;;;8.63;;
4268;SDS011;2148;48.554;7.834;2023-06-22T05:38:15;10.10;;;8.27;;
4268;SDS011;2148;48.554;7.834;2023-06-22T05:40:40;9.43;;;8.17;;
4268;SDS011;2148;48.554;7.834;2023-06-22T05:43:05;11.77;;;9.20;;
4268;SDS011;2148;48.554;7.834;2023-06-22T05:45:31;10.33;;;8.87;;
4268;SDS011;2148;48.554;7.834;2023-06-22T05:47:56;10.13;;;8.87;;
4268;SDS011;2148;48.554;7.834;2023-06-22T05:50:21;8.97;;;8.00;;
4268;SDS011;2148;48.554;7.834;2023-06-22T05:52:46;9.40;;;7.97;;
4268;SDS011;2148;48.554;7.834;2023-06-22T05:55:12;9.50;;;7.93;;
4268;SDS011;2148;48.554;7.834;2023-06-22T05:57:37;10.40;;;9.30;;
4268;SDS011;2148;48.554;7.834;2023-06-22T06:00:02;11.17;;;9.17;;
4268;SDS011;2148;48.554;7.834;2023-06-22T06:02:31;9.30;;;8.40;;
4268;SDS011;2148;48.554;7.834;2023-06-22T06:04:58;9.93;;;8.30;;
4268;SDS011;2148;48.554;7.834;2023-06-22T06:07:24;8.73;;;7.87;;
4268;SDS011;2148;48.554;7.834;2023-06-22T06:09:49;9.70;;;8.73;;
4268;SDS011;2148;48.554;7.834;2023-06-22T06:12:14;10.03;;;9.03;;
4268;SDS011;2148;48.554;7.834;2023-06-22T06:14:39;9.70;;;8.70;;
4268;SDS011;2148;48.554;7.834;2023-06-22T06:17:05;10.60;;;9.60;;
4268;SDS011;2148;48.554;7.834;2023-06-22T06:19:30;9.03;;;7.97;;
4268;SDS011;2148;48.554;7.834;2023-06-22T06:21:55;9.03;;;8.13;;
4268;SDS011;2148;48.554;7.834;2023-06-22T06:24:20;11.60;;;8.97;;
4268;SDS011;2148;48.554;7.834;2023-06-22T06:26:46;11.70;;;9.07;;
4268;SDS011;2148;48.554;7.834;2023-06-22T06:29:12;10.50;;;8.80;;
4268;SDS011;2148;48.554;7.834;2023-06-22T06:31:37;10.00;;;9.00;;
4268;SDS011;2148;48.554;7.834;2023-06-22T06:34:02;9.73;;;8.77;;
4268;SDS011;2148;48.554;7.834;2023-06-22T06:36:27;14.70;;;9.60;;
4268;SDS011;2148;48.554;7.834;2023-06-22T06:38:53;8.47;;;7.60;;
4268;SDS011;2148;48.554;7.834;2023-06-22T06:41:18;10.47;;;9.33;;
4268;SDS011;2148;48.554;7.834;2023-06-22T06:43:44;9.83;;;8.70;;
4268;SDS011;2148;48.554;7.834;2023-06-22T06:46:09;10.23;;;9.13;;
4268;SDS011;2148;48.554;7.834;2023-06-22T06:48:35;10.20;;;7.97;;
4268;SDS011;2148;48.554;7.834;2023-06-22T06:51:00;9.27;;;8.10;;
4268;SDS011;2148;48.554;7.834;2023-06-22T06:53:25;10.37;;;8.30;;
4268;SDS011;2148;48.554;7.834;2023-06-22T06:55:51;10.77;;;7.83;;
4268;SDS011;2148;48.554;7.834;2023-06-22T06:58:16;10.30;;;8.67;;
4268;SDS011;2148;48.554;7.834;2023-06-22T07:00:41;8.97;;;7.97;;
4268;SDS011;2148;48.554;7.834;2023-06-22T07:03:08;10.30;;;9.17;;
4268;SDS011;2148;48.554;7.834;2023-06-22T07:05:33;10.27;;;8.87;;
4268;SDS011;2148;48.554;7.834;2023-06-22T07:07:59;12.30;;;9.47;;
4268;SDS011;2148;48.554;7.834;2023-06-22T07:10:24;13.53;;;10.07;;
4268;SDS011;2148;48.554;7.834;2023-06-22T07:12:49;10.73;;;8.70;;
4268;SDS011;2148;48.554;7.834;2023-06-22T07:15:15;12.13;;;9.50;;
4268;SDS011;2148;48.554;7.834;2023-06-22T07:17:40;13.73;;;9.23;;
4268;SDS011;2148;48.554;7.834;2023-06-22T07:20:06;13.73;;;9.27;;
4268;SDS011;2148;48.554;7.834;2023-06-22T07:22:35;13.63;;;9.57;;
4268;SDS011;2148;48.554;7.834;2023-06-22T07:25:00;11.93;;;9.00;;
4268;SDS011;2148;48.554;7.834;2023-06-22T07:27:26;12.67;;;9.43;;
4268;SDS011;2148;48.554;7.834;2023-06-22T07:29:51;11.27;;;9.53;;
4268;SDS011;2148;48.554;7.834;2023-06-22T07:32:17;11.80;;;9.10;;
4268;SDS011;2148;48.554;7.834;2023-06-22T07:34:42;9.97;;;8.50;;
4268;SDS011;2148;48.554;7.834;2023-06-22T07:37:08;10.03;;;8.10;;
4268;SDS011;2148;48.554;7.834;2023-06-22T07:39:33;17.27;;;9.77;;
4268;SDS011;2148;48.554;7.834;2023-06-22T07:41:59;12.77;;;9.30;;
4268;SDS011;2148;48.554;7.834;2023-06-22T07:44:24;12.93;;;9.43;;
4268;SDS011;2148;48.554;7.834;2023-06-22T07:46:50;15.53;;;9.07;;
4268;SDS011;2148;48.554;7.834;2023-06-22T07:49:16;14.03;;;8.80;;
4268;SDS011;2148;48.554;7.834;2023-06-22T07:51:42;10.20;;;8.00;;
4268;SDS011;2148;48.554;7.834;2023-06-22T07:54:08;10.00;;;9.10;;
4268;SDS011;2148;48.554;7.834;2023-06-22T07:56:34;8.93;;;7.70;;
4268;SDS011;2148;48.554;7.834;2023-06-22T07:58:59;11.90;;;8.00;;
4268;SDS011;2148;48.554;7.834;2023-06-22T08:01:26;9.43;;;7.90;;
4268;SDS011;2148;48.554;7.834;2023-06-22T08:03:51;10.43;;;8.13;;
4268;SDS011;2148;48.554;7.834;2023-06-22T08:06:16;9.70;;;8.57;;
4268;SDS011;2148;48.554;7.834;2023-06-22T08:08:42;11.03;;;9.00;;
4268;SDS011;2148;48.554;7.834;2023-06-22T08:11:07;11.37;;;9.03;;
4268;SDS011;2148;48.554;7.834;2023-06-22T08:13:33;11.80;;;7.57;;
4268;SDS011;2148;48.554;7.834;2023-06-22T08:15:58;10.77;;;9.03;;
4268;SDS011;2148;48.554;7.834;2023-06-22T08:18:24;11.90;;;9.10;;
4268;SDS011;2148;48.554;7.834;2023-06-22T08:20:49;10.70;;;9.03;;
4268;SDS011;2148;48.554;7.834;2023-06-22T08:23:15;12.23;;;9.17;;
4268;SDS011;2148;48.554;7.834;2023-06-22T08:25:40;13.67;;;10.83;;
4268;SDS011;2148;48.554;7.834;2023-06-22T08:28:06;11.20;;;10.03;;
4268;SDS011;2148;48.554;7.834;2023-06-22T08:30:32;13.43;;;10.20;;
4268;SDS011;2148;48.554;7.834;2023-06-22T08:32:57;12.07;;;8.80;;
4268;SDS011;2148;48.554;7.834;2023-06-22T08:35:23;12.03;;;9.00;;
4268;SDS011;2148;48.554;7.834;2023-06-22T08:37:48;14.97;;;11.13;;
4268;SDS011;2148;48.554;7.834;2023-06-22T08:40:17;14.30;;;9.10;;
4268;SDS011;2148;48.554;7.834;2023-06-22T08:42:44;12.97;;;10.40;;
4268;SDS011;2148;48.554;7.834;2023-06-22T08:45:10;11.40;;;9.70;;
4268;SDS011;2148;48.554;7.834;2023-06-22T08:47:35;11.10;;;9.03;;
4268;SDS011;2148;48.554;7.834;2023-06-22T08:50:00;10.60;;;8.90;;
4268;SDS011;2148;48.554;7.834;2023-06-22T08:52:28;13.20;;;9.00;;
4268;SDS011;2148;48.554;7.834;2023-06-22T08:54:53;12.80;;;8.87;;
4268;SDS011;2148;48.554;7.834;2023-06-22T08:57:18;9.30;;;8.37;;
4268;SDS011;2148;48.554;7.834;2023-06-22T08:59:44;14.27;;;10.00;;
4268;SDS011;2148;48.554;7.834;2023-06-22T09:02:09;12.07;;;8.50;;
4268;SDS011;2148;48.554;7.834;2023-06-22T09:04:34;10.07;;;8.10;;
4268;SDS011;2148;48.554;7.834;2023-06-22T09:07:02;11.50;;;8.53;;
4268;SDS011;2148;48.554;7.834;2023-06-22T09:09:28;8.80;;;7.90;;
4268;SDS011;2148;48.554;7.834;2023-06-22T09:11:53;10.30;;;7.63;;
4268;SDS011;2148;48.554;7.834;2023-06-22T09:14:19;9.07;;;7.10;;
4268;SDS011;2148;48.554;7.834;2023-06-22T09:16:44;9.73;;;8.73;;
4268;SDS011;2148;48.554;7.834;2023-06-22T09:19:09;10.37;;;8.87;;
4268;SDS011;2148;48.554;7.834;2023-06-22T09:21:35;10.43;;;8.00;;
4268;SDS011;2148;48.554;7.834;2023-06-22T09:24:01;9.47;;;8.13;;
4268;SDS011;2148;48.554;7.834;2023-06-22T09:26:26;10.00;;;8.27;;
4268;SDS011;2148;48.554;7.834;2023-06-22T09:28:51;9.90;;;7.60;;
4268;SDS011;2148;48.554;7.834;2023-06-22T09:31:16;9.80;;;7.87;;
4268;SDS011;2148;48.554;7.834;2023-06-22T09:33:42;8.90;;;7.47;;
4268;SDS011;2148;48.554;7.834;2023-06-22T09:36:07;10.07;;;7.50;;
4268;SDS011;2148;48.554;7.834;2023-06-22T09:38:36;10.97;;;7.23;;
4268;SDS011;2148;48.554;7.834;2023-06-22T09:41:02;12.00;;;8.77;;
4268;SDS011;2148;48.554;7.834;2023-06-22T09:43:27;8.30;;;7.40;;
4268;SDS011;2148;48.554;7.834;2023-06-22T09:45:53;12.00;;;7.33;;
4268;SDS011;2148;48.554;7.834;2023-06-22T09:48:18;9.37;;;7.20;;
4268;SDS011;2148;48.554;7.834;2023-06-22T09:50:43;7.60;;;6.43;;
4268;SDS011;2148;48.554;7.834;2023-06-22T09:53:09;8.57;;;6.97;;
4268;SDS011;2148;48.554;7.834;2023-06-22T09:55:34;8.67;;;6.87;;
4268;SDS011;2148;48.554;7.834;2023-06-22T09:57:59;9.67;;;7.17;;
4268;SDS011;2148;48.554;7.834;2023-06-22T10:00:24;8.07;;;6.67;;
4268;SDS011;2148;48.554;7.834;2023-06-22T10:02:51;9.10;;;6.77;;
4268;SDS011;2148;48.554;7.834;2023-06-22T10:05:17;10.17;;;7.40;;
4268;SDS011;2148;48.554;7.834;2023-06-22T10:07:42;7.47;;;6.60;;
4268;SDS011;2148;48.554;7.834;2023-06-22T10:10:08;10.63;;;7.13;;
4268;SDS011;2148;48.554;7.834;2023-06-22T10:12:34;11.90;;;7.50;;
4268;SDS011;2148;48.554;7.834;2023-06-22T10:14:59;8.83;;;7.77;;
4268;SDS011;2148;48.554;7.834;2023-06-22T10:17:25;12.03;;;7.63;;
4268;SDS011;2148;48.554;7.834;2023-06-22T10:19:50;9.33;;;6.90;;
4268;SDS011;2148;48.554;7.834;2023-06-22T10:22:15;8.90;;;7.53;;
4268;SDS011;2148;48.554;7.834;2023-06-22T10:24:40;10.37;;;7.77;;
4268;SDS011;2148;48.554;7.834;2023-06-22T10:27:10;10.37;;;7.50;;
4268;SDS011;2148;48.554;7.834;2023-06-22T10:29:35;13.20;;;6.97;;
4268;SDS011;2148;48.554;7.834;2023-06-22T10:32:01;7.80;;;6.87;;
4268;SDS011;2148;48.554;7.834;2023-06-22T10:34:26;10.30;;;7.13;;
4268;SDS011;2148;48.554;7.834;2023-06-22T10:36:51;10.07;;;7.60;;
4268;SDS011;2148;48.554;7.834;2023-06-22T10:39:16;12.17;;;7.17;;
4268;SDS011;2148;48.554;7.834;2023-06-22T10:41:42;8.93;;;6.90;;
4268;SDS011;2148;48.554;7.834;2023-06-22T10:44:08;10.20;;;7.17;;
4268;SDS011;2148;48.554;7.834;2023-06-22T10:46:33;9.23;;;7.10;;
4268;SDS011;2148;48.554;7.834;2023-06-22T10:48:58;9.83;;;6.73;;
4268;SDS011;2148;48.554;7.834;2023-06-22T10:51:24;11.53;;;7.23;;
4268;SDS011;2148;48.554;7.834;2023-06-22T10:53:50;10.20;;;7.13;;
4268;SDS011;2148;48.554;7.834;2023-06-22T10:56:16;12.35;;;7.63;;
4268;SDS011;2148;48.554;7.834;2023-06-22T10:58:41;10.75;;;7.47;;
4268;SDS011;2148;48.554;7.834;2023-06-22T11:01:06;7.97;;;7.00;;
4268;SDS011;2148;48.554;7.834;2023-06-22T11:03:31;9.30;;;7.00;;
4268;SDS011;2148;48.554;7.834;2023-06-22T11:05:57;12.05;;;7.35;;
4268;SDS011;2148;48.554;7.834;2023-06-22T11:08:22;9.27;;;6.33;;
4268;SDS011;2148;48.554;7.834;2023-06-22T11:10:47;11.23;;;6.83;;
4268;SDS011;2148;48.554;7.834;2023-06-22T11:13:13;10.88;;;7.35;;
4268;SDS011;2148;48.554;7.834;2023-06-22T11:15:38;8.02;;;6.78;;
4268;SDS011;2148;48.554;7.834;2023-06-22T11:18:04;10.60;;;7.30;;
4268;SDS011;2148;48.554;7.834;2023-06-22T11:20:30;11.60;;;8.07;;
4268;SDS011;2148;48.554;7.834;2023-06-22T11:22:55;9.63;;;7.43;;
4268;SDS011;2148;48.554;7.834;2023-06-22T11:25:21;10.55;;;7.18;;
4268;SDS011;2148;48.554;7.834;2023-06-22T11:27:46;9.77;;;7.43;;
4268;SDS011;2148;48.554;7.834;2023-06-22T11:30:11;8.70;;;7.78;;
4268;SDS011;2148;48.554;7.834;2023-06-22T11:32:36;14.57;;;7.70;;
4268;SDS011;2148;48.554;7.834;2023-06-22T11:35:02;12.07;;;8.13;;
4268;SDS011;2148;48.554;7.834;2023-06-22T11:37:27;10.93;;;7.40;;
4268;SDS011;2148;48.554;7.834;2023-06-22T11:39:52;12.57;;;7.40;;
4268;SDS011;2148;48.554;7.834;2023-06-22T11:42:19;10.87;;;6.97;;
4268;SDS011;2148;48.554;7.834;2023-06-22T11:44:45;11.07;;;7.78;;
4268;SDS011;2148;48.554;7.834;2023-06-22T11:47:10;10.40;;;6.90;;
4268;SDS011;2148;48.554;7.834;2023-06-22T11:49:36;11.07;;;8.03;;
4268;SDS011;2148;48.554;7.834;2023-06-22T11:52:01;9.45;;;7.45;;
4268;SDS011;2148;48.554;7.834;2023-06-22T11:54:26;9.70;;;7.72;;
4268;SDS011;2148;48.554;7.834;2023-06-22T11:56:51;9.63;;;7.10;;
4268;SDS011;2148;48.554;7.834;2023-06-22T11:59:16;9.52;;;7.60;;
4268;SDS011;2148;48.554;7.834;2023-06-22T12:01:42;8.83;;;7.10;;
4268;SDS011;2148;48.554;7.834;2023-06-22T12:04:07;10.43;;;7.85;;
4268;SDS011;2148;48.554;7.834;2023-06-22T12:06:37;10.30;;;7.33;;
4268;SDS011;2148;48.554;7.834;2023-06-22T12:09:03;8.95;;;6.78;;
4268;SDS011;2148;48.554;7.834;2023-06-22T12:11:29;10.48;;;7.18;;
4268;SDS011;2148;48.554;7.834;2023-06-22T12:13:55;10.20;;;6.78;;
4268;SDS011;2148;48.554;7.834;2023-06-22T12:16:20;11.63;;;7.60;;
4268;SDS011;2148;48.554;7.834;2023-06-22T12:18:46;7.93;;;7.13;;
4268;SDS011;2148;48.554;7.834;2023-06-22T12:21:12;12.32;;;8.30;;
4268;SDS011;2148;48.554;7.834;2023-06-22T12:23:37;10.85;;;8.43;;
4268;SDS011;2148;48.554;7.834;2023-06-22T12:26:02;10.18;;;7.57;;
4268;SDS011;2148;48.554;7.834;2023-06-22T12:28:27;12.95;;;7.63;;
4268;SDS011;2148;48.554;7.834;2023-06-22T12:30:53;11.00;;;7.60;;
4268;SDS011;2148;48.554;7.834;2023-06-22T12:33:18;13.63;;;8.30;;
4268;SDS011;2148;48.554;7.834;2023-06-22T12:35:43;11.82;;;7.63;;
4268;SDS011;2148;48.554;7.834;2023-06-22T12:38:10;10.63;;;8.27;;
4268;SDS011;2148;48.554;7.834;2023-06-22T12:40:35;11.15;;;8.68;;
4268;SDS011;2148;48.554;7.834;2023-06-22T12:43:01;11.32;;;8.82;;
4268;SDS011;2148;48.554;7.834;2023-06-22T12:45:27;11.80;;;7.70;;
4268;SDS011;2148;48.554;7.834;2023-06-22T12:47:54;12.77;;;8.18;;
4268;SDS011;2148;48.554;7.834;2023-06-22T12:50:19;13.77;;;9.27;;
4268;SDS011;2148;48.554;7.834;2023-06-22T12:52:44;11.10;;;8.33;;
4268;SDS011;2148;48.554;7.834;2023-06-22T12:55:09;13.88;;;10.38;;
4268;SDS011;2148;48.554;7.834;2023-06-22T12:57:35;12.98;;;8.80;;
4268;SDS011;2148;48.554;7.834;2023-06-22T13:00:00;14.32;;;8.93;;
4268;SDS011;2148;48.554;7.834;2023-06-22T13:02:26;12.18;;;8.15;;
4268;SDS011;2148;48.554;7.834;2023-06-22T13:04:51;9.82;;;8.35;;
4268;SDS011;2148;48.554;7.834;2023-06-22T13:07:16;12.98;;;8.20;;
4268;SDS011;2148;48.554;7.834;2023-06-22T13:09:41;9.93;;;8.57;;
4268;SDS011;2148;48.554;7.834;2023-06-22T13:12:07;11.52;;;8.43;;
4268;SDS011;2148;48.554;7.834;2023-06-22T13:14:32;10.87;;;8.77;;
4268;SDS011;2148;48.554;7.834;2023-06-22T13:16:58;12.45;;;7.93;;
4268;SDS011;2148;48.554;7.834;2023-06-22T13:19:23;12.75;;;8.27;;
4268;SDS011;2148;48.554;7.834;2023-06-22T13:21:49;9.10;;;7.68;;
4268;SDS011;2148;48.554;7.834;2023-06-22T13:24:15;8.27;;;7.47;;
4268;SDS011;2148;48.554;7.834;2023-06-22T13:26:41;11.38;;;7.75;;
4268;SDS011;2148;48.554;7.834;2023-06-22T13:29:06;10.60;;;7.87;;
4268;SDS011;2148;48.554;7.834;2023-06-22T13:31:31;12.93;;;8.75;;
4268;SDS011;2148;48.554;7.834;2023-06-22T13:33:57;11.95;;;8.63;;
4268;SDS011;2148;48.554;7.834;2023-06-22T13:36:22;12.48;;;9.20;;
4268;SDS011;2148;48.554;7.834;2023-06-22T13:38:48;9.48;;;7.97;;
4268;SDS011;2148;48.554;7.834;2023-06-22T13:41:13;12.18;;;7.90;;
4268;SDS011;2148;48.554;7.834;2023-06-22T13:43:38;10.60;;;8.00;;
4268;SDS011;2148;48.554;7.834;2023-06-22T13:46:04;14.32;;;7.10;;
4268;SDS011;2148;48.554;7.834;2023-06-22T13:48:29;10.55;;;7.13;;
4268;SDS011;2148;48.554;7.834;2023-06-22T13:50:54;10.32;;;7.57;;
4268;SDS011;2148;48.554;7.834;2023-06-22T13:53:19;10.82;;;6.95;;
4268;SDS011;2148;48.554;7.834;2023-06-22T13:55:45;11.90;;;7.47;;
4268;SDS011;2148;48.554;7.834;2023-06-22T13:58:11;12.07;;;6.28;;
4268;SDS011;2148;48.554;7.834;2023-06-22T14:00:37;8.27;;;6.00;;
4268;SDS011;2148;48.554;7.834;2023-06-22T14:03:02;8.63;;;5.93;;
4268;SDS011;2148;48.554;7.834;2023-06-22T14:05:28;10.70;;;6.18;;
4268;SDS011;2148;48.554;7.834;2023-06-22T14:07:53;14.15;;;6.85;;
4268;SDS011;2148;48.554;7.834;2023-06-22T14:10:18;12.45;;;7.80;;
4268;SDS011;2148;48.554;7.834;2023-06-22T14:12:43;11.35;;;6.55;;
4268;SDS011;2148;48.554;7.834;2023-06-22T14:15:09;11.38;;;6.28;;
4268;SDS011;2148;48.554;7.834;2023-06-22T14:17:35;7.53;;;5.82;;
4268;SDS011;2148;48.554;7.834;2023-06-22T14:20:00;10.63;;;6.55;;
4268;SDS011;2148;48.554;7.834;2023-06-22T14:22:25;12.18;;;6.72;;
4268;SDS011;2148;48.554;7.834;2023-06-22T14:24:54;11.88;;;6.32;;
4268;SDS011;2148;48.554;7.834;2023-06-22T14:27:20;9.85;;;6.38;;
4268;SDS011;2148;48.554;7.834;2023-06-22T14:29:46;9.63;;;6.40;;
4268;SDS011;2148;48.554;7.834;2023-06-22T14:32:11;11.15;;;6.15;;
4268;SDS011;2148;48.554;7.834;2023-06-22T14:34:36;10.70;;;6.78;;
4268;SDS011;2148;48.554;7.834;2023-06-22T14:37:04;9.98;;;6.97;;
4268;SDS011;2148;48.554;7.834;2023-06-22T14:39:31;13.00;;;7.10;;
4268;SDS011;2148;48.554;7.834;2023-06-22T14:41:56;9.45;;;6.57;;
4268;SDS011;2148;48.554;7.834;2023-06-22T14:44:21;11.02;;;6.72;;
4268;SDS011;2148;48.554;7.834;2023-06-22T14:46:47;14.43;;;7.50;;
4268;SDS011;2148;48.554;7.834;2023-06-22T14:49:12;7.38;;;5.70;;
4268;SDS011;2148;48.554;7.834;2023-06-22T14:51:37;13.05;;;6.43;;
4268;SDS011;2148;48.554;7.834;2023-06-22T14:54:02;11.18;;;6.32;;
4268;SDS011;2148;48.554;7.834;2023-06-22T14:56:28;12.18;;;6.40;;
4268;SDS011;2148;48.554;7.834;2023-06-22T14:58:53;11.50;;;6.25;;
4268;SDS011;2148;48.554;7.834;2023-06-22T15:01:18;13.63;;;6.70;;
4268;SDS011;2148;48.554;7.834;2023-06-22T15:03:44;15.98;;;6.47;;
4268;SDS011;2148;48.554;7.834;2023-06-22T15:06:09;11.95;;;6.55;;
4268;SDS011;2148;48.554;7.834;2023-06-22T15:08:36;8.70;;;5.55;;
4268;SDS011;2148;48.554;7.834;2023-06-22T15:11:02;12.15;;;6.50;;